createdAt,value
2017-11-20T00:02:01.178Z,91.90
2017-11-20T00:04:31.428Z,91.60
2017-11-20T00:07:01.339Z,91.70
2017-11-20T00:09:30.431Z,91.50
2017-11-20T00:12:00.392Z,92.00
2017-11-20T00:14:35.155Z,92.00
2017-11-20T00:17:09.949Z,91.70
2017-11-20T00:19:39.645Z,91.70
2017-11-20T00:22:09.073Z,91.50
2017-11-20T00:24:38.069Z,91.80
2017-11-20T00:27:07.180Z,91.80
2017-11-20T00:29:37.460Z,91.70
2017-11-20T00:32:06.740Z,91.70
2017-11-20T00:34:36.457Z,91.40
2017-11-20T00:37:05.525Z,91.60
2017-11-20T00:39:34.908Z,91.70
2017-11-20T00:42:04.083Z,91.60
2017-11-20T00:44:33.253Z,91.40
2017-11-20T00:47:03.640Z,91.70
2017-11-20T00:49:39.314Z,91.60
2017-11-20T00:52:08.991Z,91.50
2017-11-20T00:54:38.769Z,91.60
2017-11-20T00:57:08.216Z,91.40
2017-11-20T00:59:38.174Z,91.10
2017-11-20T01:02:07.646Z,91.20
2017-11-20T01:04:37.405Z,90.90
2017-11-20T01:07:06.854Z,91.00
2017-11-20T01:09:37.053Z,91.10
2017-11-20T01:12:06.944Z,91.10
2017-11-20T01:14:36.282Z,90.90
2017-11-20T01:17:05.883Z,91.10
2017-11-20T01:19:35.057Z,90.40
2017-11-20T01:22:04.429Z,90.60
2017-11-20T01:24:34.520Z,90.50
2017-11-20T01:27:04.543Z,90.30
2017-11-20T01:29:34.480Z,90.30
2017-11-20T01:32:03.765Z,90.30
2017-11-20T01:34:33.886Z,90.30
2017-11-20T01:37:03.464Z,89.70
2017-11-20T01:39:33.561Z,90.00
2017-11-20T01:42:03.059Z,89.60
2017-11-20T01:44:32.129Z,90.20
2017-11-20T01:47:01.195Z,89.90
2017-11-20T01:49:30.291Z,89.90
2017-11-20T01:51:59.543Z,89.40
2017-11-20T01:54:28.884Z,89.20
2017-11-20T01:56:58.465Z,89.40
2017-11-20T01:59:28.193Z,89.40
2017-11-20T02:01:57.393Z,89.30
2017-11-20T02:04:26.869Z,88.90
2017-11-20T02:06:56.196Z,89.70
2017-11-20T02:09:26.826Z,88.40
2017-11-20T02:11:56.970Z,88.40
2017-11-20T02:14:26.817Z,88.30
2017-11-20T02:16:55.929Z,88.30
2017-11-20T02:19:25.810Z,88.30
2017-11-20T02:21:55.126Z,89.00
2017-11-20T02:24:28.810Z,88.50
2017-11-20T02:26:58.390Z,88.70
2017-11-20T02:29:28.645Z,89.00
2017-11-20T02:31:58.118Z,88.90
2017-11-20T02:34:27.550Z,88.60
2017-11-20T02:36:56.910Z,88.60
2017-11-20T02:39:26.758Z,88.80
2017-11-20T02:41:55.964Z,89.00
2017-11-20T02:44:25.217Z,89.10
2017-11-20T02:46:54.825Z,89.10
2017-11-20T02:49:23.977Z,89.20
2017-11-20T02:51:53.055Z,89.10
2017-11-20T02:54:22.522Z,88.70
2017-11-20T02:56:53.240Z,89.20
2017-11-20T02:59:23.156Z,89.10
2017-11-20T03:01:52.313Z,88.90
2017-11-20T03:04:21.850Z,88.80
2017-11-20T03:06:51.081Z,88.80
2017-11-20T03:09:21.262Z,89.30
2017-11-20T03:11:50.451Z,89.20
2017-11-20T03:14:19.461Z,89.40
2017-11-20T03:16:49.599Z,89.40
2017-11-20T03:19:19.311Z,89.50
2017-11-20T03:21:48.891Z,90.00
2017-11-20T03:24:18.201Z,89.90
2017-11-20T03:26:47.536Z,89.80
2017-11-20T03:29:17.544Z,90.10
2017-11-20T03:31:48.126Z,90.10
2017-11-20T03:34:17.330Z,90.10
2017-11-20T03:36:46.490Z,90.00
2017-11-20T03:39:16.653Z,90.20
2017-11-20T03:41:45.917Z,90.20
2017-11-20T03:44:15.033Z,90.50
2017-11-20T03:46:44.058Z,90.00
2017-11-20T03:49:13.097Z,90.00
2017-11-20T03:51:44.023Z,90.00
2017-11-20T03:54:14.115Z,90.00
2017-11-20T03:56:43.623Z,90.00
2017-11-20T03:59:13.817Z,90.00
2017-11-20T04:01:44.652Z,90.20
2017-11-20T04:04:13.856Z,90.20
2017-11-20T04:06:43.230Z,90.10
2017-11-20T04:09:12.407Z,89.80
2017-11-20T04:11:41.999Z,90.00
2017-11-20T04:14:11.144Z,90.00
2017-11-20T04:16:40.395Z,90.00
2017-11-20T04:19:10.595Z,89.90
2017-11-20T04:21:39.809Z,89.90
2017-11-20T04:24:08.941Z,89.80
2017-11-20T04:26:38.607Z,89.80
2017-11-20T04:29:08.166Z,89.70
2017-11-20T04:31:37.827Z,90.00
2017-11-20T04:34:06.894Z,89.30
2017-11-20T04:36:36.744Z,89.50
2017-11-20T04:39:06.897Z,89.40
2017-11-20T04:41:36.199Z,89.50
2017-11-20T04:44:05.894Z,89.30
2017-11-20T04:46:36.288Z,89.70
2017-11-20T04:49:05.612Z,89.60
2017-11-20T04:51:36.092Z,89.50
2017-11-20T04:54:06.265Z,89.40
2017-11-20T04:56:36.292Z,89.50
2017-11-20T04:59:05.947Z,89.40
2017-11-20T05:01:35.611Z,89.40
2017-11-20T05:04:04.646Z,89.20
2017-11-20T05:06:33.846Z,89.20
2017-11-20T05:09:02.899Z,89.50
2017-11-20T05:11:32.028Z,89.20
2017-11-20T05:14:01.587Z,89.20
2017-11-20T05:16:31.608Z,89.00
2017-11-20T05:19:01.626Z,88.70
2017-11-20T05:21:31.503Z,88.30
2017-11-20T05:24:00.584Z,88.20
2017-11-20T05:26:29.722Z,88.60
2017-11-20T05:28:59.708Z,88.50
2017-11-20T05:31:28.760Z,88.50
2017-11-20T05:33:57.828Z,88.50
2017-11-20T05:36:26.843Z,88.50
2017-11-20T05:38:55.880Z,88.30
2017-11-20T05:41:25.007Z,88.60
2017-11-20T05:43:54.361Z,88.40
2017-11-20T05:46:23.629Z,88.70
2017-11-20T05:48:53.031Z,88.40
2017-11-20T05:51:22.026Z,88.70
2017-11-20T05:53:51.389Z,88.60
2017-11-20T05:56:22.047Z,88.20
2017-11-20T05:58:52.153Z,88.30
2017-11-20T06:01:22.323Z,88.10
2017-11-20T06:03:51.557Z,88.10
2017-11-20T06:06:20.854Z,87.70
2017-11-20T06:08:50.145Z,87.40
2017-11-20T06:11:19.352Z,87.10
2017-11-20T06:13:49.061Z,87.70
2017-11-20T06:16:18.496Z,87.40
2017-11-20T06:18:48.502Z,87.30
2017-11-20T06:21:17.590Z,87.20
2017-11-20T06:23:47.459Z,87.70
2017-11-20T06:26:16.999Z,87.80
2017-11-20T06:28:46.322Z,87.50
2017-11-20T06:31:16.648Z,88.40
2017-11-20T06:33:45.977Z,88.30
2017-11-20T06:36:15.183Z,87.80
2017-11-20T06:38:44.945Z,87.30
2017-11-20T06:41:14.918Z,87.60
2017-11-20T06:43:44.141Z,87.60
2017-11-20T06:46:13.425Z,87.30
2017-11-20T06:48:42.753Z,87.40
2017-11-20T06:51:14.865Z,86.50
2017-11-20T06:53:44.363Z,86.50
2017-11-20T06:56:14.595Z,87.00
2017-11-20T06:58:43.833Z,86.80
2017-11-20T07:01:13.141Z,86.50
2017-11-20T07:03:42.500Z,86.40
2017-11-20T07:06:14.888Z,86.30
2017-11-20T07:08:59.160Z,85.80
2017-11-20T07:11:29.412Z,86.10
2017-11-20T07:13:59.471Z,85.50
2017-11-20T07:16:28.718Z,85.50
2017-11-20T07:18:58.694Z,87.00
2017-11-20T07:21:27.928Z,86.90
2017-11-20T07:23:56.997Z,86.20
2017-11-20T07:28:38.634Z,87.00
2017-11-20T07:31:31.657Z,86.80
2017-11-20T07:34:12.032Z,86.80
2017-11-20T07:37:51.821Z,87.00
2017-11-20T07:40:20.929Z,88.00
2017-11-20T07:42:50.087Z,88.10
2017-11-20T07:45:19.260Z,89.50
2017-11-20T07:47:49.203Z,90.20
2017-11-20T07:50:18.971Z,89.80
2017-11-20T07:52:48.313Z,90.20
2017-11-20T07:55:17.620Z,90.00
2017-11-20T07:57:46.919Z,90.50
2017-11-20T08:00:16.324Z,90.60
2017-11-20T08:02:46.118Z,90.90
2017-11-20T08:05:16.695Z,91.40
2017-11-20T08:07:45.796Z,91.40
2017-11-20T08:10:15.417Z,91.20
2017-11-20T08:12:44.791Z,90.90
2017-11-20T08:15:14.750Z,91.20
2017-11-20T08:17:43.946Z,91.00
2017-11-20T08:20:12.993Z,90.30
2017-11-20T08:22:42.968Z,90.30
2017-11-20T08:25:12.569Z,90.30
2017-11-20T08:27:41.730Z,90.20
2017-11-20T08:30:10.963Z,90.10
2017-11-20T08:32:40.811Z,90.50
2017-11-20T08:35:11.813Z,90.30
2017-11-20T08:37:42.029Z,89.30
2017-11-20T08:40:11.410Z,88.90
2017-11-20T08:42:40.781Z,88.60
2017-11-20T08:45:10.471Z,89.50
2017-11-20T08:47:39.732Z,90.10
2017-11-20T08:50:09.355Z,89.40
2017-11-20T08:52:38.854Z,88.30
2017-11-20T08:55:08.103Z,86.20
2017-11-20T08:57:37.381Z,88.70
2017-11-20T09:00:06.747Z,89.90
2017-11-20T09:02:36.155Z,86.50
2017-11-20T09:05:05.401Z,86.80
2017-11-20T09:07:34.503Z,86.00
2017-11-20T09:10:04.372Z,86.60
2017-11-20T09:12:33.982Z,86.60
2017-11-20T09:15:03.623Z,86.40
2017-11-20T09:17:33.106Z,87.10
2017-11-20T09:20:04.686Z,87.20
2017-11-20T09:22:35.118Z,86.10
2017-11-20T09:25:05.372Z,86.70
2017-11-20T09:27:35.252Z,86.60
2017-11-20T09:30:04.658Z,87.00
2017-11-20T09:32:39.343Z,86.80
2017-11-20T09:35:16.996Z,87.10
2017-11-20T09:37:46.829Z,87.80
2017-11-20T09:40:16.095Z,87.60
2017-11-20T09:42:46.297Z,87.60
2017-11-20T09:45:15.897Z,87.60
2017-11-20T09:47:45.243Z,87.60
2017-11-20T09:50:14.320Z,88.40
2017-11-20T09:52:43.609Z,89.00
2017-11-20T09:55:14.271Z,89.80
2017-11-20T09:57:44.373Z,89.80
2017-11-20T10:00:13.952Z,88.40
2017-11-20T10:02:43.187Z,87.90
2017-11-20T10:05:12.466Z,88.40
2017-11-20T10:07:42.087Z,89.10
2017-11-20T10:10:12.003Z,89.80
2017-11-20T10:12:42.327Z,90.30
2017-11-20T10:15:12.952Z,90.20
2017-11-20T10:17:43.159Z,90.10
2017-11-20T10:20:12.690Z,90.10
2017-11-20T10:22:42.122Z,89.80
2017-11-20T10:25:11.876Z,89.40
2017-11-20T10:27:41.184Z,89.40
2017-11-20T10:30:10.586Z,89.30
2017-11-20T10:32:39.863Z,88.70
2017-11-20T10:35:09.022Z,89.30
2017-11-20T10:37:38.510Z,88.90
2017-11-20T10:40:10.884Z,89.80
2017-11-20T10:42:44.365Z,89.60
2017-11-20T10:45:16.516Z,89.60
2017-11-20T10:47:46.771Z,89.80
2017-11-20T10:50:17.019Z,90.30
2017-11-20T10:52:46.471Z,90.30
2017-11-20T10:55:16.282Z,90.20
2017-11-20T10:57:45.789Z,89.40
2017-11-20T11:00:15.243Z,90.00
2017-11-20T11:02:44.566Z,90.10
2017-11-20T11:05:13.702Z,89.20
2017-11-20T11:07:44.371Z,90.00
2017-11-20T11:10:19.302Z,90.00
2017-11-20T11:13:00.393Z,90.10
2017-11-20T11:15:29.871Z,90.10
2017-11-20T11:18:00.053Z,90.10
2017-11-20T11:20:29.831Z,90.30
2017-11-20T11:22:59.697Z,90.60
2017-11-20T11:25:29.696Z,91.00
2017-11-20T11:27:59.101Z,91.10
2017-11-20T11:30:28.308Z,91.30
2017-11-20T11:32:57.529Z,91.10
2017-11-20T11:35:27.622Z,92.10
2017-11-20T11:37:57.650Z,92.10
2017-11-20T11:40:27.019Z,91.80
2017-11-20T11:42:58.644Z,92.10
2017-11-20T11:45:28.323Z,91.90
2017-11-20T11:47:57.477Z,92.30
2017-11-20T11:50:26.933Z,92.60
2017-11-20T11:53:02.678Z,92.60
2017-11-20T11:55:38.825Z,92.40
2017-11-20T11:58:08.970Z,92.80
2017-11-20T12:00:44.215Z,93.20
2017-11-20T12:03:19.583Z,93.50
2017-11-20T12:05:54.269Z,93.30
2017-11-20T12:08:24.585Z,93.50
2017-11-20T12:10:55.422Z,93.60
2017-11-20T12:13:25.048Z,93.60
2017-11-20T12:15:54.557Z,93.70
2017-11-20T12:18:24.530Z,93.80
2017-11-20T12:20:54.080Z,93.90
2017-11-20T12:23:23.697Z,93.60
2017-11-20T12:25:53.419Z,93.70
2017-11-20T12:28:23.243Z,93.90
2017-11-20T12:30:52.777Z,93.90
2017-11-20T12:33:24.809Z,93.90
2017-11-20T12:35:57.757Z,94.00
2017-11-20T12:38:30.903Z,94.30
2017-11-20T12:41:00.881Z,94.30
2017-11-20T12:43:31.862Z,94.40
2017-11-20T12:46:05.416Z,94.40
2017-11-20T12:48:35.098Z,94.40
2017-11-20T12:51:05.483Z,95.00
2017-11-20T12:53:35.684Z,95.00
2017-11-20T12:56:08.142Z,95.00
2017-11-20T12:58:38.988Z,94.70
2017-11-20T13:01:12.001Z,95.20
2017-11-20T13:03:43.453Z,94.90
2017-11-20T13:06:14.812Z,95.20
2017-11-20T13:08:45.636Z,94.90
2017-11-20T13:11:22.497Z,95.00
2017-11-20T13:14:02.548Z,95.10
2017-11-20T13:16:37.510Z,95.40
2017-11-20T13:19:06.866Z,95.20
2017-11-20T13:21:36.410Z,95.10
2017-11-20T13:24:06.491Z,95.10
2017-11-20T13:26:36.115Z,95.30
2017-11-20T13:29:05.371Z,95.20
2017-11-20T13:31:36.794Z,95.60
2017-11-20T13:34:07.465Z,95.70
2017-11-20T13:36:38.730Z,95.60
2017-11-20T13:39:09.574Z,95.60
2017-11-20T13:41:39.586Z,95.50
2017-11-20T13:44:09.892Z,95.50
2017-11-20T13:46:39.869Z,95.90
2017-11-20T13:49:11.178Z,95.90
2017-11-20T13:51:47.324Z,95.90
2017-11-20T13:54:24.199Z,96.10
2017-11-20T13:56:55.803Z,96.30
2017-11-20T13:59:25.241Z,96.30
2017-11-20T14:01:56.399Z,96.30
2017-11-20T14:04:27.556Z,96.30
2017-11-20T14:07:00.177Z,96.10
2017-11-20T14:09:30.785Z,96.70
2017-11-20T14:12:00.239Z,96.60
2017-11-20T14:14:31.559Z,96.40
2017-11-20T14:17:04.384Z,96.40
2017-11-20T14:19:35.916Z,96.50
2017-11-20T14:22:10.143Z,96.60
2017-11-20T14:24:40.097Z,96.60
2017-11-20T14:27:09.775Z,96.60
2017-11-20T14:29:39.902Z,96.90
2017-11-20T14:32:15.954Z,96.90
2017-11-20T14:34:51.771Z,96.80
2017-11-20T14:37:25.426Z,96.80
2017-11-20T14:40:00.782Z,97.00
2017-11-20T14:42:38.574Z,96.90
2017-11-20T14:45:09.190Z,96.90
2017-11-20T14:47:40.393Z,97.00
2017-11-20T14:50:12.215Z,97.00
2017-11-20T14:52:42.040Z,96.70
2017-11-20T14:55:12.154Z,97.10
2017-11-20T14:57:41.488Z,97.30
2017-11-20T15:00:12.304Z,97.40
2017-11-20T15:02:47.680Z,97.40
2017-11-20T15:05:22.799Z,97.30
2017-11-20T15:07:52.768Z,97.20
2017-11-20T15:10:22.962Z,97.50
2017-11-20T15:12:53.803Z,97.40
2017-11-20T15:15:25.478Z,97.00
2017-11-20T15:17:56.199Z,97.50
2017-11-20T15:20:28.064Z,97.30
2017-11-20T15:22:59.622Z,97.50
2017-11-20T15:25:30.936Z,97.50
2017-11-20T15:28:01.552Z,97.30
2017-11-20T15:30:31.680Z,97.20
2017-11-20T15:33:01.438Z,97.40
2017-11-20T15:35:31.921Z,96.80
2017-11-20T15:38:02.260Z,97.10
2017-11-20T15:40:31.453Z,97.10
2017-11-20T15:43:03.668Z,97.20
2017-11-20T15:45:32.886Z,97.20
2017-11-20T15:48:02.409Z,97.00
2017-11-20T15:50:31.962Z,97.20
2017-11-20T15:53:03.847Z,97.20
2017-11-20T15:55:33.203Z,97.20
2017-11-20T15:58:03.757Z,97.20
2017-11-20T16:00:34.068Z,97.00
2017-11-20T16:03:03.520Z,96.90
2017-11-20T16:05:34.021Z,97.10
2017-11-20T16:08:03.265Z,97.10
2017-11-20T16:10:32.407Z,97.40
2017-11-20T16:13:02.782Z,97.70
2017-11-20T16:15:32.152Z,97.70
2017-11-20T16:18:01.683Z,97.30
2017-11-20T16:20:30.859Z,97.40
2017-11-20T16:23:00.317Z,97.40
2017-11-20T16:25:29.785Z,97.60
2017-11-20T16:27:59.505Z,97.20
2017-11-20T16:30:28.692Z,97.20
2017-11-20T16:32:57.985Z,97.50
2017-11-20T16:35:28.064Z,97.40
2017-11-20T16:38:01.989Z,97.00
2017-11-20T16:40:41.819Z,97.20
2017-11-20T16:43:11.586Z,97.50
2017-11-20T16:45:40.826Z,97.20
2017-11-20T16:48:10.483Z,97.40
2017-11-20T16:50:40.468Z,97.40
2017-11-20T16:53:14.616Z,97.40
2017-11-20T16:55:48.606Z,97.40
2017-11-20T16:58:58.685Z,97.40
2017-11-20T17:01:36.994Z,97.30
2017-11-20T17:04:06.132Z,97.70
2017-11-20T17:06:35.333Z,97.10
2017-11-20T17:09:04.755Z,97.20
2017-11-20T17:11:35.311Z,97.70
2017-11-20T17:14:05.270Z,97.40
2017-11-20T17:16:34.550Z,97.10
2017-11-20T17:19:03.833Z,97.10
2017-11-20T17:21:35.689Z,97.20
2017-11-20T17:24:05.377Z,97.30
2017-11-20T17:26:34.637Z,96.80
2017-11-20T17:29:04.043Z,97.00
2017-11-20T17:31:33.277Z,96.80
2017-11-20T17:34:03.479Z,96.60
2017-11-20T17:36:32.833Z,96.60
2017-11-20T17:39:03.657Z,96.50
2017-11-20T17:41:38.342Z,95.90
2017-11-20T17:44:10.254Z,96.40
2017-11-20T17:46:41.486Z,96.10
2017-11-20T17:49:11.083Z,95.80
2017-11-20T17:51:41.635Z,95.60
2017-11-20T17:54:11.293Z,95.50
2017-11-20T17:56:45.331Z,94.80
2017-11-20T17:59:18.042Z,95.10
2017-11-20T18:01:50.828Z,95.10
2017-11-20T18:04:23.902Z,94.90
2017-11-20T18:06:53.760Z,94.90
2017-11-20T18:09:25.082Z,94.80
2017-11-20T18:11:55.059Z,94.60
2017-11-20T18:14:25.860Z,94.70
2017-11-20T18:16:56.006Z,94.70
2017-11-20T18:19:33.714Z,94.60
2017-11-20T18:22:09.421Z,94.70
2017-11-20T18:24:39.740Z,94.70
2017-11-20T18:27:09.862Z,94.80
2017-11-20T18:29:39.947Z,94.60
2017-11-20T18:32:13.556Z,94.80
2017-11-20T18:34:46.519Z,94.60
2017-11-20T18:37:16.355Z,94.60
2017-11-20T18:39:51.795Z,94.40
2017-11-20T18:42:24.049Z,94.60
2017-11-20T18:44:54.530Z,94.60
2017-11-20T18:47:24.750Z,94.60
2017-11-20T18:49:54.289Z,94.50
2017-11-20T18:52:27.563Z,94.60
2017-11-20T18:55:04.927Z,94.70
2017-11-20T18:57:40.261Z,94.70
2017-11-20T19:00:21.705Z,94.10
2017-11-20T19:02:57.353Z,94.10
2017-11-20T19:07:39.782Z,94.10
2017-11-20T19:10:11.164Z,94.10
2017-11-20T19:12:47.074Z,94.00
2017-11-20T19:15:24.252Z,93.90
2017-11-20T19:17:55.124Z,93.90
2017-11-20T19:20:24.513Z,93.90
2017-11-20T19:22:53.984Z,93.90
2017-11-20T19:25:23.380Z,94.10
2017-11-20T19:27:53.244Z,94.00
2017-11-20T19:30:24.155Z,94.40
2017-11-20T19:32:53.715Z,94.30
2017-11-20T19:35:23.154Z,94.70
2017-11-20T19:37:53.410Z,95.00
2017-11-20T19:40:22.652Z,95.00
2017-11-20T19:42:52.856Z,95.30
2017-11-20T19:45:26.406Z,95.20
2017-11-20T19:48:03.219Z,95.60
2017-11-20T19:50:35.533Z,95.40
2017-11-20T19:53:04.949Z,95.50
2017-11-20T19:55:34.253Z,95.50
2017-11-20T19:58:04.541Z,95.30
2017-11-20T20:00:42.173Z,95.20
2017-11-20T20:03:17.183Z,95.50
2017-11-20T20:05:46.927Z,95.20
2017-11-20T20:08:17.702Z,95.20
2017-11-20T20:10:47.349Z,95.20
2017-11-20T20:13:16.676Z,95.10
2017-11-20T20:15:52.059Z,95.20
2017-11-20T20:18:31.630Z,95.20
2017-11-20T20:21:16.115Z,95.10
2017-11-20T20:23:46.500Z,95.20
2017-11-20T20:26:17.315Z,95.30
2017-11-20T20:28:46.560Z,95.70
2017-11-20T20:31:15.788Z,95.70
2017-11-20T20:33:50.279Z,96.40
2017-11-20T20:36:25.432Z,96.30
2017-11-20T20:38:59.648Z,96.50
2017-11-20T20:41:28.736Z,96.70
2017-11-20T20:43:57.831Z,96.80
2017-11-20T20:46:27.425Z,97.10
2017-11-20T20:49:03.050Z,97.30
2017-11-20T20:51:42.067Z,97.40
2017-11-20T20:54:13.230Z,97.30
2017-11-20T20:56:43.586Z,97.20
2017-11-20T20:59:14.895Z,97.30
2017-11-20T21:01:44.309Z,97.20
2017-11-20T21:04:13.987Z,97.40
2017-11-20T21:06:47.563Z,97.00
2017-11-20T21:09:17.093Z,96.60
2017-11-20T21:12:19.478Z,96.40
2017-11-20T21:14:49.593Z,96.10
2017-11-20T21:17:20.020Z,96.30
2017-11-20T21:19:49.202Z,96.30
2017-11-20T21:22:19.704Z,96.30
2017-11-20T21:24:51.622Z,96.30
2017-11-20T21:27:20.800Z,96.50
2017-11-20T21:29:50.849Z,95.90
2017-11-20T21:32:20.589Z,95.90
2017-11-20T21:34:51.405Z,95.90
2017-11-20T21:37:20.649Z,95.90
2017-11-20T21:39:56.921Z,95.60
2017-11-20T21:42:32.928Z,95.60
2017-11-20T21:45:03.853Z,95.60
2017-11-20T21:47:33.735Z,95.60
2017-11-20T21:50:03.786Z,95.10
2017-11-20T21:52:33.073Z,95.60
2017-11-20T21:55:04.778Z,95.80
2017-11-20T21:57:34.475Z,95.40
2017-11-20T22:00:06.834Z,95.10
2017-11-20T22:02:44.810Z,96.00
2017-11-20T22:05:16.894Z,95.20
2017-11-20T22:07:48.486Z,95.20
2017-11-20T22:10:18.868Z,95.40
2017-11-20T22:12:57.914Z,95.30
2017-11-20T22:15:30.727Z,95.60
2017-11-20T22:18:00.784Z,95.60
2017-11-20T22:20:31.297Z,96.30
2017-11-20T22:23:02.443Z,96.30
2017-11-20T22:25:34.878Z,96.40
2017-11-20T22:28:04.376Z,96.30
2017-11-20T22:30:33.812Z,96.30
2017-11-20T22:33:09.586Z,96.20
2017-11-20T22:35:40.867Z,96.50
2017-11-20T22:38:10.602Z,96.60
2017-11-20T22:40:41.598Z,96.80
2017-11-20T22:43:12.518Z,97.10
2017-11-20T22:45:42.065Z,97.00
2017-11-20T22:48:14.031Z,97.20
2017-11-20T22:50:45.462Z,96.80
2017-11-20T22:53:16.031Z,96.80
2017-11-20T22:55:45.347Z,96.80
2017-11-20T22:58:14.625Z,96.80
2017-11-20T23:00:44.343Z,96.50
2017-11-20T23:03:13.813Z,96.20
2017-11-20T23:05:45.035Z,95.90
2017-11-20T23:08:17.166Z,95.90
2017-11-20T23:10:46.677Z,96.20
2017-11-20T23:13:16.868Z,96.40
2017-11-20T23:15:47.005Z,96.30
2017-11-20T23:18:16.120Z,96.30
2017-11-20T23:20:45.626Z,96.50
2017-11-20T23:23:15.184Z,96.20
2017-11-20T23:25:45.148Z,96.80
2017-11-20T23:28:14.194Z,97.30
2017-11-20T23:30:47.251Z,97.50
2017-11-20T23:33:17.257Z,97.40
2017-11-20T23:35:46.686Z,97.50
2017-11-20T23:38:16.407Z,97.20
2017-11-20T23:40:46.544Z,97.40
2017-11-20T23:46:48.347Z,97.30
2017-11-20T23:49:18.173Z,97.30
2017-11-20T23:51:49.058Z,97.30
2017-11-20T23:54:28.540Z,97.20
2017-11-20T23:56:58.465Z,97.20
2017-11-20T23:59:27.850Z,97.40
